Time;durP1;ratioP1;P1;durP2;ratioP2;P2;SDS_P1;SDS_P2;PMS_P1;PMS_P2;Temp;Humidity;BMP_temperature;BMP_pressure;BME280_temperature;BME280_humidity;BME280_pressure;Samples;Min_cycle;Max_cycle;Signal;HPM_P1;HPM_P2
2022/12/14 00:01:25;;;;;;;1.60;1.50;;;-5.00;99.90;;;;;;5041263;28;20152;-73
2022/12/14 00:03:51;;;;;;;0.37;0.37;;;-5.00;99.90;;;;;;5041484;28;20515;-72
2022/12/14 00:06:27;;;;;;;1.20;1.10;;;-5.00;99.90;;;;;;5041575;28;20041;-72
2022/12/14 00:08:56;;;;;;;0.10;0.10;;;-5.00;99.90;;;;;;5041541;28;20045;-73
2022/12/14 00:11:22;;;;;;;0.73;0.73;;;-5.00;99.90;;;;;;5040732;28;20059;-72
2022/12/14 00:13:59;;;;;;;0.30;0.30;;;-4.90;99.90;;;;;;5041280;28;20134;-72
2022/12/14 00:16:28;;;;;;;17.47;1.70;;;-5.00;99.90;;;;;;5040887;28;20068;-72
2022/12/14 00:18:56;;;;;;;1.20;1.10;;;-5.00;99.90;;;;;;5040929;28;20058;-72
2022/12/14 00:21:23;;;;;;;7.43;1.47;;;-5.00;99.90;;;;;;5040934;28;20048;-73
2022/12/14 00:23:50;;;;;;;0.10;0.10;;;-5.00;99.90;;;;;;5041030;28;20575;-72
2022/12/14 00:26:24;;;;;;;0.00;0.00;;;-5.10;99.90;;;;;;5040761;28;20498;-73
2022/12/14 00:28:51;;;;;;;1.10;1.10;;;-5.20;99.90;;;;;;5041062;28;20056;-72
2022/12/14 00:31:18;;;;;;;0.00;0.00;;;-5.20;99.90;;;;;;5041144;28;20183;-72
2022/12/14 00:33:44;;;;;;;0.20;0.20;;;-5.30;99.90;;;;;;5040980;28;20456;-73
2022/12/14 00:36:11;;;;;;;1.40;0.60;;;-5.40;99.90;;;;;;5040673;28;20135;-73
2022/12/14 00:38:37;;;;;;;0.10;0.10;;;-5.50;99.90;;;;;;5040593;28;20500;-73
2022/12/14 00:41:03;;;;;;;1.33;1.27;;;-5.60;99.90;;;;;;5040295;28;20047;-72
2022/12/14 00:43:29;;;;;;;5.63;1.97;;;-5.50;99.90;;;;;;5040475;28;20494;-73
2022/12/14 00:45:56;;;;;;;0.20;0.20;;;-5.60;99.90;;;;;;5044560;28;20037;-72
2022/12/14 00:48:23;;;;;;;0.73;0.73;;;-5.70;99.90;;;;;;5044554;28;20600;-73
2022/12/14 00:50:50;;;;;;;3.53;3.33;;;-5.70;99.90;;;;;;5044716;28;20059;-72
2022/12/14 00:53:16;;;;;;;0.27;0.27;;;-5.60;99.90;;;;;;5044704;28;20126;-73
2022/12/14 00:55:44;;;;;;;0.33;0.33;;;-5.60;99.90;;;;;;5044633;28;20494;-72
2022/12/14 00:58:12;;;;;;;0.40;0.40;;;-5.70;99.90;;;;;;5043758;28;20060;-72
2022/12/14 01:00:38;;;;;;;0.10;0.10;;;-5.90;99.90;;;;;;5044076;28;20044;-72
2022/12/14 01:03:04;;;;;;;0.63;0.63;;;-5.90;99.90;;;;;;5043781;28;20040;-72
2022/12/14 01:05:32;;;;;;;2.13;2.00;;;-6.10;99.90;;;;;;5044392;28;20128;-73
2022/12/14 01:07:58;;;;;;;0.87;0.87;;;-6.10;99.90;;;;;;5043796;28;20447;-73
2022/12/14 01:10:23;;;;;;;2.20;2.10;;;-6.10;99.90;;;;;;5044170;28;20131;-72
2022/12/14 01:12:49;;;;;;;0.00;0.00;;;-6.10;99.90;;;;;;5042838;28;20394;-72
2022/12/14 01:15:15;;;;;;;1.13;1.03;;;-6.20;99.90;;;;;;5044088;28;20517;-72
2022/12/14 01:17:40;;;;;;;0.83;0.83;;;-6.20;99.90;;;;;;5043854;28;20393;-73
2022/12/14 01:20:06;;;;;;;0.93;0.93;;;-6.20;99.90;;;;;;5044270;28;20045;-72
2022/12/14 01:22:32;;;;;;;1.33;1.23;;;-6.30;99.90;;;;;;5043639;28;20469;-72
2022/12/14 01:24:58;;;;;;;1.20;1.13;;;-6.40;99.90;;;;;;5043699;28;20314;-73
2022/12/14 01:27:23;;;;;;;1.30;1.20;;;-6.60;99.90;;;;;;5043435;28;20398;-72
2022/12/14 01:29:49;;;;;;;0.50;0.50;;;-6.80;99.90;;;;;;5043907;28;20051;-72
2022/12/14 01:32:14;;;;;;;0.20;0.20;;;-6.80;99.90;;;;;;5043615;28;20095;-72
2022/12/14 01:34:40;;;;;;;0.07;0.07;;;-6.80;99.90;;;;;;5043580;28;20049;-73
2022/12/14 01:37:06;;;;;;;0.17;0.17;;;-6.90;99.90;;;;;;5043400;28;20041;-73
2022/12/14 01:39:31;;;;;;;0.50;0.50;;;-6.90;99.90;;;;;;5043191;28;20047;-72
2022/12/14 01:41:58;;;;;;;0.63;0.63;;;-6.90;99.90;;;;;;5043373;28;20045;-72
2022/12/14 01:44:23;;;;;;;0.97;0.97;;;-6.90;99.90;;;;;;5043730;28;20056;-72
2022/12/14 01:47:02;;;;;;;3.20;1.20;;;-7.00;99.90;;;;;;5043263;28;20045;-72
2022/12/14 01:50:07;;;;;;;0.20;0.20;;;-7.10;99.90;;;;;;5043421;28;20068;-72
2022/12/14 01:52:43;;;;;;;1.33;1.23;;;-7.10;99.90;;;;;;5042543;28;20075;-73
2022/12/14 01:55:27;;;;;;;0.10;0.10;;;-7.10;99.90;;;;;;5042540;28;20057;-72
2022/12/14 01:57:59;;;;;;;0.10;0.10;;;-7.10;99.90;;;;;;5042934;28;20124;-72
2022/12/14 02:00:24;;;;;;;3.13;0.47;;;-7.10;99.90;;;;;;5043137;28;20445;-72
2022/12/14 02:02:56;;;;;;;0.37;0.37;;;-7.20;99.90;;;;;;5041736;28;20063;-72
2022/12/14 02:05:24;;;;;;;1.37;1.30;;;-7.30;99.90;;;;;;5042894;28;20067;-72
2022/12/14 02:07:52;;;;;;;0.63;0.63;;;-7.20;99.90;;;;;;5043019;28;20045;-72
2022/12/14 02:10:18;;;;;;;1.53;1.23;;;-7.10;99.90;;;;;;5042789;28;20467;-72
2022/12/14 02:12:49;;;;;;;1.07;1.07;;;-7.10;99.90;;;;;;5043131;28;20422;-72
2022/12/14 02:15:15;;;;;;;0.30;0.30;;;-7.10;99.90;;;;;;5043020;28;20944;-72
2022/12/14 02:17:43;;;;;;;4.97;1.63;;;-7.10;99.90;;;;;;5042804;28;20041;-72
2022/12/14 02:20:11;;;;;;;0.77;0.77;;;-7.30;99.90;;;;;;5043072;28;20379;-72
2022/12/14 02:22:56;;;;;;;0.33;0.33;;;-7.40;99.90;;;;;;5042534;28;20045;-72
2022/12/14 02:25:44;;;;;;;0.97;0.97;;;-7.50;99.90;;;;;;5042731;28;20052;-73
2022/12/14 02:28:38;;;;;;;0.30;0.30;;;-7.50;99.90;;;;;;5042355;28;20049;-72
2022/12/14 02:31:12;;;;;;;0.10;0.10;;;-7.30;99.90;;;;;;5042469;28;20044;-72
2022/12/14 02:33:49;;;;;;;2.23;2.13;;;-7.30;99.90;;;;;;5042613;28;20086;-72
2022/12/14 02:36:23;;;;;;;9.07;6.13;;;-7.40;99.90;;;;;;5042533;28;20146;-73
2022/12/14 02:39:03;;;;;;;0.20;0.20;;;-7.50;99.90;;;;;;5042825;28;20045;-73
2022/12/14 02:41:39;;;;;;;0.30;0.30;;;-7.50;99.90;;;;;;5042384;28;20060;-72
2022/12/14 02:44:27;;;;;;;0.35;0.35;;;-7.40;99.90;;;;;;5042627;28;20384;-72
2022/12/14 02:47:01;;;;;;;5.40;4.90;;;-7.40;99.90;;;;;;5042219;28;20061;-72
2022/12/14 02:49:59;;;;;;;0.20;0.20;;;-7.30;99.90;;;;;;5041980;28;20041;-72
2022/12/14 02:52:27;;;;;;;;;;;-7.40;99.90;;;;;;5042979;28;20040;-72
2022/12/14 02:55:05;;;;;;;0.10;0.10;;;-7.40;99.90;;;;;;5040589;28;19978;-72
2022/12/14 02:57:38;;;;;;;0.40;0.40;;;-7.50;99.90;;;;;;5041873;28;20051;-72
2022/12/14 03:00:05;;;;;;;1.00;0.93;;;-7.60;99.90;;;;;;5041874;28;20053;-72
2022/12/14 03:02:36;;;;;;;0.30;0.30;;;-7.80;99.90;;;;;;5041551;28;20041;-72
2022/12/14 03:05:01;;;;;;;0.40;0.40;;;-7.90;99.90;;;;;;5041296;28;20053;-72
2022/12/14 03:07:33;;;;;;;1.90;1.80;;;-8.10;99.90;;;;;;5040980;28;20502;-72
2022/12/14 03:10:24;;;;;;;0.80;0.80;;;-8.00;99.90;;;;;;5041556;28;20106;-72
2022/12/14 03:12:56;;;;;;;0.10;0.10;;;-7.80;99.90;;;;;;5031103;28;20068;-72
2022/12/14 03:15:24;;;;;;;4.03;3.50;;;-7.90;99.90;;;;;;5041721;28;20231;-72
2022/12/14 03:17:56;;;;;;;0.10;0.10;;;-7.80;99.90;;;;;;5041147;28;20064;-72
2022/12/14 03:20:24;;;;;;;1.80;1.70;;;-7.80;99.90;;;;;;5041246;28;20516;-72
2022/12/14 03:22:56;;;;;;;0.20;0.20;;;-7.70;99.90;;;;;;5041778;28;20122;-72
2022/12/14 03:25:39;;;;;;;0.30;0.30;;;-7.80;99.90;;;;;;5041157;28;20045;-72
2022/12/14 03:28:14;;;;;;;0.20;0.20;;;-7.80;99.90;;;;;;5041052;28;20053;-72
2022/12/14 03:30:43;;;;;;;0.20;0.20;;;-7.90;99.90;;;;;;5041485;28;20045;-72
2022/12/14 03:33:14;;;;;;;1.20;1.03;;;-8.00;99.90;;;;;;5041701;28;20064;-72
2022/12/14 03:36:21;;;;;;;0.20;0.20;;;-8.00;99.90;;;;;;5041273;28;20056;-72
2022/12/14 03:38:51;;;;;;;0.28;0.28;;;-7.90;99.90;;;;;;5023332;28;20057;-72
2022/12/14 03:41:44;;;;;;;1.27;1.20;;;-8.00;99.90;;;;;;5041273;28;20049;-72
2022/12/14 03:44:19;;;;;;;0.00;0.00;;;-8.10;99.90;;;;;;5041896;28;20056;-73
2022/12/14 03:46:57;;;;;;;0.13;0.13;;;-8.10;99.90;;;;;;5041360;28;20123;-73
2022/12/14 03:49:54;;;;;;;0.10;0.10;;;-8.10;99.90;;;;;;5041584;28;20049;-73
2022/12/14 03:52:38;;;;;;;0.10;0.10;;;-8.30;99.90;;;;;;5041135;28;20055;-73
2022/12/14 03:55:29;;;;;;;1.77;1.37;;;-8.30;99.90;;;;;;5041884;28;20127;-73
2022/12/14 03:58:35;;;;;;;0.10;0.10;;;-8.30;99.90;;;;;;5041307;28;20049;-72
2022/12/14 04:01:23;;;;;;;0.30;0.30;;;-8.40;99.90;;;;;;5041315;28;20053;-73
2022/12/14 04:04:05;;;;;;;1.30;1.27;;;-8.60;99.90;;;;;;5041276;28;20595;-73
2022/12/14 04:06:53;;;;;;;3.13;2.93;;;-8.70;90.80;;;;;;5041231;28;20502;-73
2022/12/14 04:09:40;;;;;;;0.33;0.33;;;-8.60;99.90;;;;;;5041380;28;20061;-72
2022/12/14 04:20:56;;;;;;;0.27;0.27;;;-8.10;99.90;;;;;;5040615;28;20422;-73
2022/12/14 04:26:28;;;;;;;0.20;0.20;;;-8.20;99.90;;;;;;5041356;28;20056;-73
2022/12/14 04:31:48;;;;;;;0.10;0.10;;;-8.20;99.90;;;;;;5040934;28;20468;-73
2022/12/14 04:34:16;;;;;;;7.63;5.63;;;-8.40;99.90;;;;;;5039314;28;20056;-72
2022/12/14 04:36:54;;;;;;;0.07;0.07;;;-8.60;99.90;;;;;;5041139;28;20730;-73
2022/12/14 04:39:29;;;;;;;0.00;0.00;;;-8.60;99.90;;;;;;5040714;28;20041;-72
2022/12/14 04:41:59;;;;;;;1.30;1.20;;;-8.80;99.90;;;;;;5040947;28;20124;-73
2022/12/14 04:44:33;;;;;;;0.10;0.10;;;-8.80;85.10;;;;;;5040371;28;20052;-73
2022/12/14 04:47:00;;;;;;;0.20;0.20;;;-8.80;38.10;;;;;;5040363;28;20037;-73
2022/12/14 04:49:34;;;;;;;0.20;0.20;;;-8.90;1.00;;;;;;5041105;28;20040;-73
2022/12/14 04:52:22;;;;;;;0.30;0.30;;;-8.90;99.90;;;;;;5040568;28;20103;-73
2022/12/14 04:54:58;;;;;;;0.10;0.10;;;-9.10;99.90;;;;;;5040857;28;20041;-73
2022/12/14 04:57:36;;;;;;;0.30;0.30;;;-9.20;99.90;;;;;;5041039;28;20049;-73
2022/12/14 05:00:04;;;;;;;0.13;0.13;;;-9.10;99.90;;;;;;5040401;28;20060;-72
2022/12/14 05:02:51;;;;;;;0.10;0.10;;;-9.10;99.90;;;;;;5039491;28;20055;-72
2022/12/14 05:05:19;;;;;;;;;;;-9.20;50.70;;;;;;5040526;28;20048;-72
2022/12/14 05:08:00;;;;;;;0.10;0.10;;;-9.20;1.00;;;;;;5039614;28;20043;-73
2022/12/14 05:10:32;;;;;;;0.53;0.53;;;-9.30;1.00;;;;;;5038604;28;20531;-73
2022/12/14 05:13:07;;;;;;;0.10;0.10;;;-9.40;99.90;;;;;;5039948;28;20053;-73
2022/12/14 05:15:39;;;;;;;0.00;0.00;;;-9.50;99.90;;;;;;5039804;28;20048;-72
2022/12/14 05:18:06;;;;;;;0.30;0.30;;;-9.60;99.90;;;;;;5039758;28;20082;-72
2022/12/14 05:20:32;;;;;;;0.10;0.10;;;-9.60;99.90;;;;;;5030910;28;20521;-72
2022/12/14 05:22:58;;;;;;;0.10;0.10;;;-9.60;99.90;;;;;;5029435;28;20154;-72
2022/12/14 05:25:23;;;;;;;0.10;0.10;;;-9.70;99.90;;;;;;5029908;28;20091;-72
2022/12/14 05:27:49;;;;;;;0.00;0.00;;;-9.60;99.90;;;;;;5020646;28;20041;-72
2022/12/14 05:30:15;;;;;;;0.70;0.70;;;-9.60;99.90;;;;;;5020534;28;20120;-73
2022/12/14 05:32:41;;;;;;;0.10;0.10;;;-9.60;99.90;;;;;;5042415;28;20050;-73
2022/12/14 05:35:10;;;;;;;0.43;0.43;;;-9.60;99.90;;;;;;5043470;28;20045;-73
2022/12/14 05:37:35;;;;;;;0.07;0.07;;;-9.60;99.90;;;;;;5043186;28;20074;-73
2022/12/14 05:40:01;;;;;;;0.00;0.00;;;-9.60;99.90;;;;;;5043630;28;20048;-72
2022/12/14 05:42:27;;;;;;;0.10;0.10;;;-9.60;99.90;;;;;;5042780;28;20043;-72
2022/12/14 05:44:52;;;;;;;0.13;0.13;;;-9.70;99.90;;;;;;5043113;28;20122;-72
2022/12/14 05:47:18;;;;;;;0.10;0.10;;;-9.70;1.00;;;;;;5042902;28;20052;-73
2022/12/14 05:49:44;;;;;;;0.13;0.13;;;-9.70;1.00;;;;;;5043394;28;20072;-73
2022/12/14 05:52:09;;;;;;;0.30;0.30;;;-9.60;99.90;;;;;;5041752;28;20056;-73
2022/12/14 05:54:35;;;;;;;0.03;0.03;;;-9.60;99.90;;;;;;5040673;28;20525;-72
2022/12/14 05:57:01;;;;;;;0.13;0.13;;;-9.60;99.90;;;;;;5041116;28;20434;-73
2022/12/14 05:59:26;;;;;;;0.10;0.10;;;-9.70;99.90;;;;;;5040149;28;20053;-72
2022/12/14 06:01:52;;;;;;;0.13;0.13;;;-9.70;99.90;;;;;;5040592;28;20333;-72
2022/12/14 06:04:18;;;;;;;1.80;1.07;;;-9.50;1.40;;;;;;5040062;28;20506;-72
2022/12/14 06:06:44;;;;;;;0.10;0.10;;;-9.40;99.90;;;;;;5040564;28;20533;-72
2022/12/14 06:09:12;;;;;;;0.10;0.10;;;-9.40;1.20;;;;;;5040748;28;20041;-72
2022/12/14 06:11:40;;;;;;;0.50;0.50;;;-9.40;1.00;;;;;;5040236;28;20060;-72
2022/12/14 06:14:07;;;;;;;0.10;0.10;;;-9.20;99.90;;;;;;5032227;28;20041;-72
2022/12/14 06:16:34;;;;;;;0.60;0.60;;;-9.00;1.00;;;;;;5037321;28;20414;-72
2022/12/14 06:19:02;;;;;;;0.70;0.70;;;-8.90;1.00;;;;;;5040644;28;20049;-72
2022/12/14 06:21:34;;;;;;;2.13;1.97;;;-8.70;1.00;;;;;;5040904;28;20131;-72
2022/12/14 06:24:00;;;;;;;0.60;0.60;;;-8.60;26.50;;;;;;5041801;28;20107;-72
2022/12/14 06:26:27;;;;;;;0.10;0.10;;;-8.70;30.30;;;;;;5042552;28;20103;-72
2022/12/14 06:28:53;;;;;;;0.10;0.10;;;-8.70;1.00;;;;;;5042470;28;20509;-72
2022/12/14 06:31:22;;;;;;;1.20;1.17;;;-8.80;1.00;;;;;;5042330;28;20091;-72
2022/12/14 06:33:48;;;;;;;2.80;1.60;;;-9.00;99.90;;;;;;5041430;28;20462;-72
2022/12/14 06:36:34;;;;;;;0.10;0.10;;;-9.20;99.90;;;;;;5042981;28;20041;-72
2022/12/14 06:39:03;;;;;;;0.10;0.10;;;-9.30;98.60;;;;;;5042418;28;20057;-72
2022/12/14 06:41:29;;;;;;;0.00;0.00;;;-9.40;2.20;;;;;;5041731;28;20049;-72
2022/12/14 06:43:56;;;;;;;0.00;0.00;;;-9.40;1.00;;;;;;5042148;28;20119;-72
2022/12/14 06:46:22;;;;;;;0.20;0.20;;;-9.50;1.00;;;;;;5041419;28;20111;-72
2022/12/14 06:48:50;;;;;;;4.47;1.97;;;-9.50;99.90;;;;;;5042303;28;20041;-72
2022/12/14 06:51:16;;;;;;;0.10;0.10;;;-9.60;99.90;;;;;;5042285;28;20061;-72
2022/12/14 06:53:42;;;;;;;0.00;0.00;;;-9.70;86.50;;;;;;5042503;28;20051;-72
2022/12/14 06:56:13;;;;;;;0.10;0.10;;;-9.80;1.00;;;;;;5041048;28;20529;-72
2022/12/14 06:58:39;;;;;;;0.10;0.10;;;-9.80;99.90;;;;;;5041849;28;20068;-72
2022/12/14 07:01:07;;;;;;;0.10;0.10;;;-9.60;99.90;;;;;;5041979;28;20053;-72
2022/12/14 07:03:34;;;;;;;1.70;1.60;;;-9.40;1.00;;;;;;5042108;28;20503;-72
2022/12/14 07:06:01;;;;;;;0.37;0.37;;;-9.10;1.00;;;;;;5041881;28;20511;-72
2022/12/14 07:08:29;;;;;;;0.20;0.20;;;-9.00;24.70;;;;;;5042099;28;20514;-72
2022/12/14 07:10:55;;;;;;;0.30;0.30;;;-8.80;86.90;;;;;;5042007;28;20064;-72
2022/12/14 07:13:21;;;;;;;0.67;0.67;;;-8.60;99.90;;;;;;5042124;28;20518;-72
2022/12/14 07:15:55;;;;;;;2.30;2.20;;;-8.70;99.90;;;;;;5042529;28;20168;-72
2022/12/14 07:18:21;;;;;;;1.30;1.20;;;-8.70;99.90;;;;;;5041560;28;20049;-72
2022/12/14 07:20:59;;;;;;;0.40;0.40;;;-8.70;99.90;;;;;;5041752;28;20041;-72
2022/12/14 07:23:25;;;;;;;0.10;0.10;;;-8.80;99.90;;;;;;5042056;28;20053;-72
2022/12/14 07:25:52;;;;;;;0.10;0.10;;;-8.70;99.90;;;;;;5042726;28;20048;-72
2022/12/14 07:28:18;;;;;;;3.43;3.23;;;-8.80;91.00;;;;;;5038798;28;20510;-72
2022/12/14 07:30:44;;;;;;;0.10;0.10;;;-8.80;99.90;;;;;;5031962;28;20411;-72
2022/12/14 07:33:10;;;;;;;2.53;2.33;;;-8.90;96.50;;;;;;5030401;28;20057;-72
2022/12/14 07:35:36;;;;;;;1.60;1.50;;;-8.90;97.90;;;;;;5028058;28;20044;-72
2022/12/14 07:38:02;;;;;;;0.20;0.20;;;-8.90;97.50;;;;;;5024688;28;20523;-72
2022/12/14 07:40:28;;;;;;;0.20;0.20;;;-8.80;99.90;;;;;;5041162;28;20049;-72
2022/12/14 07:42:54;;;;;;;0.33;0.33;;;-8.90;92.50;;;;;;5041068;28;20057;-73
2022/12/14 07:45:20;;;;;;;0.90;0.83;;;-8.80;95.80;;;;;;5040370;28;20053;-72
2022/12/14 07:47:45;;;;;;;0.20;0.20;;;-8.90;65.70;;;;;;5041277;28;20498;-72
2022/12/14 07:50:11;;;;;;;1.87;1.43;;;-9.10;1.00;;;;;;5041065;28;20148;-72
2022/12/14 07:52:37;;;;;;;1.17;1.17;;;-9.30;99.90;;;;;;5041317;28;20083;-72
2022/12/14 07:55:03;;;;;;;0.47;0.40;;;-9.30;99.90;;;;;;5039924;28;20095;-72
2022/12/14 07:57:29;;;;;;;0.10;0.10;;;-9.30;99.90;;;;;;5040698;28;20045;-72
2022/12/14 07:59:54;;;;;;;0.10;0.10;;;-9.40;99.90;;;;;;5040699;28;20060;-72
2022/12/14 08:02:20;;;;;;;0.53;0.53;;;-9.30;99.90;;;;;;5040759;28;20048;-72
2022/12/14 08:04:46;;;;;;;0.17;0.17;;;-9.20;99.90;;;;;;5040570;28;20048;-72
2022/12/14 08:07:11;;;;;;;0.83;0.83;;;-9.20;99.90;;;;;;5040662;28;20595;-72
2022/12/14 08:09:37;;;;;;;0.00;0.00;;;-9.30;39.70;;;;;;5040912;28;20124;-72
2022/12/14 08:12:03;;;;;;;0.10;0.10;;;-9.50;99.90;;;;;;5040897;28;20053;-72
2022/12/14 08:14:28;;;;;;;0.87;0.87;;;-9.60;99.90;;;;;;5040598;28;20399;-72
2022/12/14 08:16:54;;;;;;;0.40;0.40;;;-9.60;40.80;;;;;;5040443;28;20041;-72
2022/12/14 08:19:20;;;;;;;0.10;0.10;;;-9.50;99.90;;;;;;5040857;28;20048;-72
2022/12/14 08:21:46;;;;;;;0.13;0.13;;;-9.40;99.90;;;;;;5040245;28;20984;-72
2022/12/14 08:24:13;;;;;;;0.37;0.37;;;-9.20;1.00;;;;;;5040641;28;20041;-72
2022/12/14 08:26:39;;;;;;;0.30;0.30;;;-9.10;1.00;;;;;;5040536;28;20405;-72
2022/12/14 08:29:05;;;;;;;0.30;0.30;;;-8.80;51.30;;;;;;5040250;28;21005;-72
2022/12/14 08:31:31;;;;;;;3.80;2.73;;;-8.70;64.20;;;;;;5038463;28;20084;-72
2022/12/14 08:33:58;;;;;;;0.70;0.70;;;-8.80;31.50;;;;;;5038730;28;20051;-72
2022/12/14 08:36:29;;;;;;;0.53;0.53;;;-8.80;1.00;;;;;;5038078;28;20045;-72
2022/12/14 08:39:00;;;;;;;0.10;0.10;;;-8.70;1.00;;;;;;5038214;28;20132;-72
2022/12/14 08:41:27;;;;;;;0.10;0.10;;;-8.70;1.00;;;;;;5038059;28;20165;-72
2022/12/14 08:43:58;;;;;;;0.40;0.40;;;-8.70;1.00;;;;;;5038099;28;20076;-72
2022/12/14 08:46:26;;;;;;;1.10;1.10;;;-8.70;99.90;;;;;;5038008;28;20053;-72
2022/12/14 08:48:53;;;;;;;1.10;1.10;;;-8.60;99.90;;;;;;5038111;28;20060;-72
2022/12/14 08:51:19;;;;;;;0.20;0.20;;;-8.40;1.00;;;;;;5053710;28;20060;-72
2022/12/14 08:53:46;;;;;;;0.33;0.33;;;-8.20;59.30;;;;;;5038111;28;20316;-72
2022/12/14 08:56:15;;;;;;;0.20;0.20;;;-8.10;75.40;;;;;;5038211;28;20145;-72
2022/12/14 08:58:41;;;;;;;0.27;0.27;;;-8.00;42.80;;;;;;5037816;28;20053;-72
2022/12/14 09:01:13;;;;;;;0.10;0.10;;;-7.90;97.20;;;;;;5037978;28;20048;-72
2022/12/14 09:03:40;;;;;;;0.23;0.23;;;-7.90;31.50;;;;;;5037791;28;20095;-72
2022/12/14 09:06:08;;;;;;;3.33;3.03;;;-7.90;1.00;;;;;;5040369;28;20115;-72
2022/12/14 09:08:35;;;;;;;2.93;1.40;;;-7.90;1.00;;;;;;5041718;28;20080;-73
2022/12/14 09:11:02;;;;;;;3.60;1.50;;;-7.80;1.00;;;;;;5041778;28;20124;-73
2022/12/14 09:13:28;;;;;;;1.70;1.60;;;-7.60;1.00;;;;;;5041327;28;20049;-73
2022/12/14 09:16:02;;;;;;;0.23;0.23;;;-7.40;92.90;;;;;;5041875;28;20564;-73
2022/12/14 09:18:28;;;;;;;0.20;0.20;;;-7.40;90.90;;;;;;5041595;28;20041;-72
2022/12/14 09:20:55;;;;;;;0.00;0.00;;;-7.30;98.60;;;;;;5041712;28;20466;-72
2022/12/14 09:23:26;;;;;;;16.30;4.23;;;-7.30;48.00;;;;;;5041482;28;20064;-73
2022/12/14 09:25:58;;;;;;;1.57;1.47;;;-7.20;22.40;;;;;;5041641;28;20119;-73
2022/12/14 09:28:24;;;;;;;0.50;0.50;;;-7.10;45.90;;;;;;5041603;28;20100;-73
2022/12/14 09:30:57;;;;;;;0.53;0.53;;;-7.10;95.20;;;;;;5041882;28;20048;-72
2022/12/14 09:33:24;;;;;;;0.10;0.10;;;-6.90;99.90;;;;;;5041669;28;20127;-73
2022/12/14 09:35:50;;;;;;;2.50;2.30;;;-6.80;99.90;;;;;;5041598;28;20052;-72
2022/12/14 09:38:15;;;;;;;0.67;0.67;;;-6.80;99.90;;;;;;5041264;28;20045;-73
2022/12/14 09:40:47;;;;;;;4.33;3.20;;;-6.90;55.90;;;;;;5041343;28;20464;-73
2022/12/14 09:43:30;;;;;;;2.10;1.90;;;-6.80;63.20;;;;;;5041413;28;20097;-73
2022/12/14 09:46:23;;;;;;;0.10;0.10;;;-6.70;60.10;;;;;;5041359;28;20064;-73
2022/12/14 09:48:50;;;;;;;0.77;0.77;;;-6.60;81.60;;;;;;5041108;28;20083;-73
2022/12/14 09:51:19;;;;;;;0.00;0.00;;;-6.50;92.30;;;;;;5041062;28;20045;-73
2022/12/14 09:53:49;;;;;;;2.00;1.90;;;-6.50;91.30;;;;;;5040818;28;20053;-73
2022/12/14 09:56:18;;;;;;;0.10;0.10;;;-6.40;98.40;;;;;;5040792;28;20457;-72
2022/12/14 09:58:58;;;;;;;0.00;0.00;;;-6.20;99.90;;;;;;5040832;28;20094;-73
2022/12/14 10:01:56;;;;;;;5.93;2.23;;;-6.10;99.90;;;;;;5040448;28;20130;-72
2022/12/14 10:04:37;;;;;;;3.17;2.90;;;-5.90;99.90;;;;;;5028906;28;20049;-73
2022/12/14 10:07:15;;;;;;;0.13;0.13;;;-5.80;99.90;;;;;;5040409;28;20049;-73
2022/12/14 10:10:00;;;;;;;0.57;0.57;;;-5.70;99.90;;;;;;5040688;28;20091;-73
2022/12/14 10:12:31;;;;;;;1.47;1.37;;;-5.70;99.90;;;;;;5041110;28;20056;-72
2022/12/14 10:15:11;;;;;;;1.73;1.60;;;-5.70;99.90;;;;;;5040621;28;20053;-73
2022/12/14 10:18:04;;;;;;;0.00;0.00;;;-5.70;99.90;;;;;;5026497;28;20076;-73
2022/12/14 10:21:01;;;;;;;1.27;1.23;;;-5.60;99.90;;;;;;5041018;28;20055;-73
2022/12/14 10:23:27;;;;;;;7.75;1.75;;;-5.50;99.90;;;;;;5050244;28;20513;-73
2022/12/14 10:26:00;;;;;;;1.40;1.30;;;-5.40;99.90;;;;;;5039022;28;20186;-73
2022/12/14 10:28:42;;;;;;;0.00;0.00;;;-5.30;99.90;;;;;;5040086;28;20060;-72
2022/12/14 10:31:15;;;;;;;0.40;0.40;;;-5.20;99.90;;;;;;5038858;28;20049;-72
2022/12/14 10:33:44;;;;;;;0.30;0.30;;;-5.10;99.90;;;;;;5041649;28;20385;-73
2022/12/14 10:36:20;;;;;;;0.97;0.97;;;-5.00;99.90;;;;;;5042335;28;20454;-73
2022/12/14 10:39:19;;;;;;;1.00;1.00;;;-4.90;99.90;;;;;;5041754;28;20070;-73
2022/12/14 10:41:54;;;;;;;0.30;0.30;;;-4.90;99.90;;;;;;5042287;28;20091;-72
2022/12/14 10:44:35;;;;;;;0.43;0.43;;;-4.80;99.90;;;;;;5042503;28;20175;-73
2022/12/14 10:47:09;;;;;;;0.00;0.00;;;-4.80;99.90;;;;;;5042285;28;20049;-73
2022/12/14 10:49:40;;;;;;;0.40;0.40;;;-4.70;99.90;;;;;;5040973;28;20135;-73
2022/12/14 10:52:17;;;;;;;0.20;0.20;;;-4.60;99.90;;;;;;5024127;28;20053;-73
2022/12/14 10:54:50;;;;;;;0.07;0.07;;;-4.60;99.90;;;;;;5041904;28;20087;-73
2022/12/14 10:57:18;;;;;;;0.20;0.20;;;-4.50;99.90;;;;;;5041797;28;20123;-73
2022/12/14 10:59:45;;;;;;;1.53;1.00;;;-4.50;99.90;;;;;;5042381;28;20063;-73
2022/12/14 11:02:15;;;;;;;0.70;0.70;;;-4.50;99.90;;;;;;5041790;28;20084;-73
2022/12/14 11:05:13;;;;;;;1.20;1.17;;;-4.40;99.90;;;;;;5042132;28;20037;-73
2022/12/14 11:07:42;;;;;;;1.33;0.97;;;-4.40;99.90;;;;;;5042063;28;20059;-73
2022/12/14 11:10:19;;;;;;;0.30;0.30;;;-4.40;99.90;;;;;;5041785;28;20310;-72
2022/12/14 11:13:02;;;;;;;0.50;0.50;;;-4.30;99.90;;;;;;5040030;28;20170;-73
2022/12/14 11:15:41;;;;;;;0.37;0.37;;;-4.30;99.90;;;;;;5042100;28;20049;-73
2022/12/14 11:18:15;;;;;;;3.10;1.93;;;-4.20;99.90;;;;;;5041192;28;20052;-73
2022/12/14 11:20:59;;;;;;;0.30;0.30;;;-4.20;99.90;;;;;;5040259;28;20045;-73
2022/12/14 11:23:43;;;;;;;0.33;0.33;;;-4.10;99.90;;;;;;5041317;28;20179;-73
2022/12/14 11:26:14;;;;;;;1.60;1.50;;;-4.00;99.90;;;;;;5041717;28;20629;-73
2022/12/14 11:28:55;;;;;;;0.10;0.10;;;-4.00;99.90;;;;;;5041535;28;20410;-73
2022/12/14 11:31:28;;;;;;;1.27;1.20;;;-3.90;99.90;;;;;;5041946;28;20094;-73
2022/12/14 11:33:57;;;;;;;1.93;0.93;;;-3.80;99.90;;;;;;5041966;28;20053;-73
2022/12/14 11:36:36;;;;;;;2.07;1.87;;;-3.80;99.90;;;;;;5041561;28;20040;-73
2022/12/14 11:39:12;;;;;;;0.50;0.50;;;-3.80;99.90;;;;;;5041694;28;20128;-73
2022/12/14 11:41:43;;;;;;;1.10;1.02;;;-3.80;99.90;;;;;;5040167;28;20049;-73
2022/12/14 11:44:15;;;;;;;1.30;1.27;;;-3.70;99.90;;;;;;5040320;28;20056;-73
2022/12/14 11:46:57;;;;;;;0.63;0.63;;;-3.70;99.90;;;;;;5039868;28;20080;-73
2022/12/14 11:49:35;;;;;;;0.87;0.87;;;-3.70;99.90;;;;;;5041403;28;20418;-73
2022/12/14 11:52:03;;;;;;;4.43;1.50;;;-3.60;99.90;;;;;;5041338;28;20095;-73
2022/12/14 11:54:34;;;;;;;1.60;1.50;;;-3.50;99.90;;;;;;5040939;28;20044;-73
2022/12/14 11:57:07;;;;;;;0.97;0.97;;;-3.50;99.90;;;;;;5040869;28;20044;-73
2022/12/14 12:00:06;;;;;;;1.53;1.43;;;-3.40;99.90;;;;;;5041138;28;20061;-73
2022/12/14 12:02:36;;;;;;;1.67;1.57;;;-3.30;99.90;;;;;;5023505;28;20081;-73
2022/12/14 12:05:02;;;;;;;3.53;3.27;;;-3.10;99.90;;;;;;5021669;28;20149;-73
2022/12/14 12:07:33;;;;;;;6.90;1.43;;;-3.10;99.90;;;;;;5040248;28;20053;-73
2022/12/14 12:10:12;;;;;;;1.67;1.57;;;-2.90;99.90;;;;;;5040965;28;20040;-74
2022/12/14 12:12:46;;;;;;;0.10;0.10;;;-2.80;99.90;;;;;;5039829;28;20049;-73
2022/12/14 12:15:17;;;;;;;0.37;0.37;;;-2.70;99.90;;;;;;5039953;28;20127;-73
2022/12/14 12:17:45;;;;;;;0.20;0.20;;;-2.60;99.90;;;;;;5040403;28;20053;-73
2022/12/14 12:20:33;;;;;;;1.40;1.13;;;-2.40;99.90;;;;;;5040258;28;20529;-74
2022/12/14 12:23:23;;;;;;;0.25;0.25;;;-2.20;99.90;;;;;;5040533;28;20049;-73
2022/12/14 12:25:51;;;;;;;1.10;1.03;;;-2.00;99.90;;;;;;5041384;28;20051;-73
2022/12/14 12:28:24;;;;;;;14.00;3.17;;;-1.90;99.90;;;;;;5040995;28;20055;-73
2022/12/14 12:30:53;;;;;;;1.48;1.35;;;-1.80;99.90;;;;;;5039492;28;20045;-74
2022/12/14 12:33:43;;;;;;;1.92;1.35;;;-1.70;99.90;;;;;;5041077;28;20080;-74
2022/12/14 12:36:10;;;;;;;0.57;0.32;;;-1.50;99.90;;;;;;5039844;28;20045;-74
2022/12/14 12:38:50;;;;;;;13.35;2.75;;;-1.50;99.90;;;;;;5040439;28;20045;-74
2022/12/14 12:41:31;;;;;;;4.43;1.47;;;-1.50;99.90;;;;;;5043738;28;20045;-73
2022/12/14 12:44:21;;;;;;;1.85;1.55;;;-1.40;99.90;;;;;;5045294;28;20052;-74
2022/12/14 12:47:13;;;;;;;4.30;3.63;;;-1.30;99.90;;;;;;5044461;28;20506;-74
2022/12/14 12:49:39;;;;;;;0.70;0.70;;;-1.10;99.90;;;;;;5043280;28;20063;-74
2022/12/14 12:52:14;;;;;;;2.10;1.65;;;-1.00;99.90;;;;;;5044532;28;20045;-74
2022/12/14 12:54:52;;;;;;;1.23;1.13;;;-0.90;99.90;;;;;;5043309;28;20047;-74
2022/12/14 12:57:19;;;;;;;1.00;0.88;;;-0.90;99.90;;;;;;5044980;28;20509;-74
2022/12/14 12:59:50;;;;;;;4.32;2.47;;;-1.10;99.90;;;;;;5044132;28;20152;-74
2022/12/14 13:02:41;;;;;;;1.27;1.17;;;-1.20;99.90;;;;;;5044892;28;20380;-74
2022/12/14 13:05:17;;;;;;;0.93;0.82;;;-1.30;99.90;;;;;;5043642;28;20513;-74
2022/12/14 13:07:53;;;;;;;0.77;0.77;;;-1.30;99.90;;;;;;5042290;28;20053;-74
2022/12/14 13:10:30;;;;;;;2.70;2.00;;;-1.10;99.90;;;;;;5043866;28;20056;-74
2022/12/14 13:13:11;;;;;;;0.77;0.52;;;-1.10;99.90;;;;;;5044462;28;20103;-73
2022/12/14 13:15:43;;;;;;;0.85;0.85;;;-1.10;99.90;;;;;;5044221;28;20103;-73
2022/12/14 13:18:30;;;;;;;4.07;3.00;;;-1.10;99.90;;;;;;5042295;28;20041;-74
2022/12/14 13:20:56;;;;;;;4.65;2.40;;;-1.30;99.90;;;;;;5043628;28;20084;-73
2022/12/14 13:23:24;;;;;;;1.70;1.60;;;-1.40;99.90;;;;;;5042534;28;20072;-74
2022/12/14 13:26:11;;;;;;;1.65;1.55;;;-1.30;99.90;;;;;;5042190;28;20056;-74
2022/12/14 13:28:48;;;;;;;1.52;1.30;;;-1.10;99.90;;;;;;5042142;28;20088;-73